SESA/SNC METAR and TAF weather

Enter ICAO airport designator
Station Type Date Time Source
SESA METAR 2020/04/04 12:00 UTC NOAA

SESA 041200Z 27003KT 9999 BKN026 25/22 Q1009 RMK A2981


Station Type Date Time Source
SESA Decoded METAR 2020/04/04 12:00 UTC NOAA

Salinas / General Ulpiano Paez, Ecuador (SESA) 02-12S 080-59W 8M
Apr 04, 2020 - 08:00 AM EDT / 2020.04.04 1200 UTC
Wind: from the W (270 degrees) at 3 MPH (3 KT):0
Visibility: greater than 7 mile(s):0
Sky conditions: mostly cloudy
Temperature: 77 F (25 C)
Dew Point: 71 F (22 C)
Relative Humidity: 83%
Pressure (altimeter): 29.80 in. Hg (1009 hPa)
ob: SESA 041200Z 27003KT 9999 BKN026 25/22 Q1009 RMK A2981
cycle: 12

Station Type Date Time Source
SESA TAF UTC NOAA

Error!

Example: see airport list